Terminal Aerodrome Forecast
Issued by NWS

Home | Current Version | Previous Version | Text Only | Print | Product List | Glossary On
Versions: 1 2 3 4 5 6 7 8 9 10 11 12 13 14 15 16 17 18 19
000
FTUS45 KBOI 010409 AAC
TAFTWF
TAF AMD
KTWF 010409Z 0104/0124 17020G30KT P6SM -RA FEW025 BKN070
     FM010500 15010KT P6SM SCT080
     FM010800 18010KT P6SM -SHRA BKN070 OVC100
     FM011700 26008KT P6SM BKN100
     FM012100 29010KT P6SM FEW120=

USA.gov is the U.S. government's official web portal to all federal, state and local government web resources and services.